createdAt,value
2022-08-09T00:00:15.774Z,15.72
2022-08-09T00:04:00.363Z,15.60
2022-08-09T00:06:19.472Z,15.55
2022-08-09T00:08:48.281Z,15.49
2022-08-09T00:11:24.517Z,15.47
2022-08-09T00:13:53.662Z,15.42
2022-08-09T00:16:25.875Z,15.34
2022-08-09T00:19:09.510Z,15.33
2022-08-09T00:21:38.819Z,15.30
2022-08-09T00:24:27.340Z,15.29
2022-08-09T00:26:55.884Z,15.34
2022-08-09T00:29:39.146Z,15.31
2022-08-09T00:32:13.633Z,15.34
2022-08-09T00:34:56.554Z,15.28
2022-08-09T00:37:26.622Z,15.40
2022-08-09T00:40:08.965Z,15.37
2022-08-09T00:44:14.425Z,15.43
2022-08-09T00:45:28.113Z,15.49
2022-08-09T00:47:55.873Z,15.47
2022-08-09T00:50:24.331Z,15.51
2022-08-09T00:52:53.846Z,15.54
2022-08-09T00:56:03.734Z,15.58
2022-08-09T00:58:14.823Z,15.50
2022-08-09T01:00:53.372Z,15.47
2022-08-09T01:03:29.021Z,15.48
2022-08-09T01:06:18.257Z,15.54
2022-08-09T01:08:55.680Z,15.48
2022-08-09T01:11:35.386Z,15.25
2022-08-09T01:14:08.288Z,15.04
2022-08-09T01:16:47.179Z,14.90
2022-08-09T01:19:42.728Z,14.77
2022-08-09T01:22:54.786Z,14.68
2022-08-09T01:25:42.063Z,14.45
2022-08-09T01:28:18.502Z,14.34
2022-08-09T01:30:52.693Z,14.23
2022-08-09T01:33:24.926Z,14.12
2022-08-09T01:36:00.636Z,14.09
2022-08-09T01:38:30.814Z,14.10
2022-08-09T01:41:05.728Z,14.01
2022-08-09T01:43:42.042Z,14.02
2022-08-09T01:46:25.295Z,14.04
2022-08-09T01:49:00.036Z,14.05
2022-08-09T01:51:32.199Z,14.10
2022-08-09T01:54:04.113Z,14.16
2022-08-09T01:56:34.305Z,14.13
2022-08-09T01:59:09.035Z,14.19
2022-08-09T02:01:59.382Z,14.23
2022-08-09T02:04:28.737Z,14.27
2022-08-09T02:08:35.184Z,14.23
2022-08-09T02:10:07.965Z,14.07
2022-08-09T02:12:39.420Z,14.06
2022-08-09T02:15:11.905Z,13.89
2022-08-09T02:18:09.589Z,13.87
2022-08-09T02:20:36.812Z,13.90
2022-08-09T02:23:16.906Z,13.87
2022-08-09T02:25:49.640Z,13.81
2022-08-09T02:28:24.367Z,13.82
2022-08-09T02:31:01.386Z,13.81
2022-08-09T02:33:37.836Z,13.71
2022-08-09T02:36:28.423Z,13.59
2022-08-09T02:39:01.675Z,13.65
2022-08-09T02:41:37.568Z,13.65
2022-08-09T02:44:10.568Z,13.64
2022-08-09T02:46:58.217Z,13.58
2022-08-09T02:49:38.153Z,13.64
2022-08-09T02:52:08.710Z,13.53
2022-08-09T02:54:54.052Z,13.55
2022-08-09T02:57:25.409Z,13.63
2022-08-09T03:00:21.546Z,13.56
2022-08-09T03:02:58.589Z,13.66
2022-08-09T03:05:34.564Z,13.69
2022-08-09T03:08:05.360Z,13.67
2022-08-09T03:10:36.386Z,13.67
2022-08-09T03:13:08.488Z,13.73
2022-08-09T03:16:04.874Z,13.74
2022-08-09T03:18:30.605Z,13.78
2022-08-09T03:21:02.844Z,13.84
2022-08-09T03:23:31.542Z,13.87
2022-08-09T03:26:03.708Z,13.80
2022-08-09T03:28:35.172Z,13.79
2022-08-09T03:31:09.928Z,13.78
2022-08-09T03:33:53.416Z,13.80
2022-08-09T03:36:27.432Z,13.80
2022-08-09T03:38:56.544Z,13.90
2022-08-09T03:41:30.143Z,13.92
2022-08-09T03:44:12.782Z,14.02
2022-08-09T03:46:40.566Z,13.96
2022-08-09T03:49:10.710Z,13.97
2022-08-09T03:51:55.267Z,13.96
2022-08-09T03:54:31.659Z,13.90
2022-08-09T03:57:04.015Z,13.98
2022-08-09T03:59:53.905Z,14.00
2022-08-09T04:02:26.986Z,14.04
2022-08-09T04:04:58.559Z,14.03
2022-08-09T04:07:33.698Z,14.01
2022-08-09T04:10:18.300Z,14.06
2022-08-09T04:12:50.949Z,14.09
2022-08-09T04:15:39.020Z,14.12
2022-08-09T04:18:09.352Z,14.16
2022-08-09T04:20:46.320Z,14.18
2022-08-09T04:23:16.820Z,14.23
2022-08-09T04:25:52.312Z,14.30
2022-08-09T04:28:31.362Z,14.33
2022-08-09T04:31:05.731Z,14.43
2022-08-09T04:33:51.684Z,14.52
2022-08-09T04:36:26.140Z,14.59
2022-08-09T04:38:55.073Z,14.65
2022-08-09T04:41:24.432Z,14.78
2022-08-09T04:44:06.865Z,14.86
2022-08-09T04:46:59.089Z,14.93
2022-08-09T04:49:40.820Z,15.04
2022-08-09T04:52:18.520Z,15.03
2022-08-09T04:54:52.404Z,15.08
2022-08-09T04:57:23.770Z,15.06
2022-08-09T04:59:53.973Z,14.96
2022-08-09T05:02:22.136Z,15.12
2022-08-09T05:04:55.036Z,15.16
2022-08-09T05:07:29.162Z,15.12
2022-08-09T05:10:01.820Z,15.09
2022-08-09T05:12:33.167Z,15.13
2022-08-09T05:15:11.557Z,15.27
2022-08-09T05:18:39.507Z,15.47
2022-08-09T05:20:39.946Z,15.58
2022-08-09T05:23:54.577Z,15.66
2022-08-09T05:25:57.325Z,15.77
2022-08-09T05:28:27.429Z,15.84
2022-08-09T05:30:55.191Z,15.91
2022-08-09T05:33:26.382Z,16.09
2022-08-09T05:36:01.888Z,16.15
2022-08-09T05:38:31.438Z,16.28
2022-08-09T05:41:00.026Z,16.37
2022-08-09T05:43:28.957Z,16.49
2022-08-09T05:45:59.551Z,16.52
2022-08-09T05:48:32.880Z,16.72
2022-08-09T05:51:42.906Z,16.72
2022-08-09T05:53:57.388Z,16.92
2022-08-09T05:56:28.091Z,17.05
2022-08-09T05:58:58.612Z,17.15
2022-08-09T06:01:33.718Z,17.18
2022-08-09T06:04:05.639Z,17.31
2022-08-09T06:06:34.585Z,17.49
2022-08-09T06:09:09.978Z,17.57
2022-08-09T06:11:57.225Z,17.69
2022-08-09T06:14:26.281Z,17.65
2022-08-09T06:16:57.252Z,17.73
2022-08-09T06:19:25.258Z,17.83
2022-08-09T06:21:58.920Z,17.83
2022-08-09T06:24:28.887Z,17.83
2022-08-09T06:26:57.285Z,17.93
2022-08-09T06:29:26.963Z,18.12
2022-08-09T06:32:24.629Z,18.11
2022-08-09T06:34:43.211Z,18.18
2022-08-09T06:37:11.166Z,18.30
2022-08-09T06:39:57.819Z,18.54
2022-08-09T06:42:30.935Z,18.56
2022-08-09T06:45:52.131Z,18.50
2022-08-09T06:47:57.992Z,18.48
2022-08-09T06:50:31.208Z,18.58
2022-08-09T06:53:01.760Z,18.37
2022-08-09T06:55:33.027Z,18.49
2022-08-09T06:58:04.493Z,18.59
2022-08-09T07:00:51.955Z,18.98
2022-08-09T07:03:27.637Z,19.05
2022-08-09T07:06:03.756Z,19.37
2022-08-09T07:08:37.304Z,19.48
2022-08-09T07:11:12.395Z,19.49
2022-08-09T07:14:00.236Z,19.57
2022-08-09T07:16:42.429Z,19.64
2022-08-09T07:19:18.828Z,19.65
2022-08-09T07:21:57.185Z,19.69
2022-08-09T07:24:32.792Z,19.79
2022-08-09T07:27:26.383Z,19.89
2022-08-09T07:30:00.948Z,20.17
2022-08-09T07:32:33.236Z,20.19
2022-08-09T07:35:08.035Z,20.21
2022-08-09T07:37:44.569Z,20.27
2022-08-09T07:40:16.942Z,20.41
2022-08-09T07:42:51.266Z,20.34
2022-08-09T07:45:38.417Z,20.63
2022-08-09T07:48:25.851Z,20.67
2022-08-09T07:51:09.639Z,20.74
2022-08-09T07:54:05.190Z,20.86
2022-08-09T07:56:36.042Z,20.77
2022-08-09T07:59:12.593Z,20.99
2022-08-09T08:01:53.001Z,21.11
2022-08-09T08:04:31.305Z,21.23
2022-08-09T08:07:09.315Z,21.32
2022-08-09T08:09:51.481Z,21.42
2022-08-09T08:12:37.164Z,21.44
2022-08-09T08:15:13.780Z,21.59
2022-08-09T08:17:53.942Z,21.72
2022-08-09T08:20:27.227Z,21.91
2022-08-09T08:23:06.394Z,21.87
2022-08-09T08:25:46.477Z,21.79
2022-08-09T08:28:18.148Z,21.76
2022-08-09T08:30:55.086Z,21.60
2022-08-09T08:33:24.747Z,21.89
2022-08-09T08:35:59.143Z,22.19
2022-08-09T08:38:28.398Z,22.36
2022-08-09T08:40:58.243Z,22.42
2022-08-09T08:43:27.401Z,22.45
2022-08-09T08:46:03.735Z,22.74
2022-08-09T08:48:38.434Z,22.94
2022-08-09T08:51:19.732Z,23.09
2022-08-09T08:54:03.187Z,23.23
2022-08-09T08:56:35.609Z,23.00
2022-08-09T08:59:07.808Z,23.04
2022-08-09T09:01:53.371Z,23.11
2022-08-09T09:04:29.774Z,23.07
2022-08-09T09:07:03.882Z,22.93
2022-08-09T09:09:58.333Z,22.60
2022-08-09T09:12:30.893Z,22.33
2022-08-09T09:15:02.547Z,22.41
2022-08-09T09:17:49.046Z,22.72
2022-08-09T09:20:21.312Z,23.04
2022-08-09T09:22:55.531Z,23.33
2022-08-09T09:26:04.509Z,23.42
2022-08-09T09:29:02.924Z,23.38
2022-08-09T09:31:17.489Z,23.62
2022-08-09T09:34:15.331Z,24.12
2022-08-09T09:36:52.884Z,24.32
2022-08-09T09:39:42.783Z,24.48
2022-08-09T09:42:23.012Z,24.47
2022-08-09T09:44:57.951Z,24.13
2022-08-09T09:47:28.542Z,23.55
2022-08-09T09:50:15.053Z,23.39
2022-08-09T09:52:52.447Z,23.20
2022-08-09T09:55:27.770Z,23.20
2022-08-09T09:58:03.177Z,23.46
2022-08-09T10:00:52.979Z,23.34
2022-08-09T10:03:58.121Z,23.30
2022-08-09T10:06:38.850Z,23.59
2022-08-09T10:09:22.249Z,24.06
2022-08-09T10:12:04.394Z,24.14
2022-08-09T10:14:48.050Z,24.01
2022-08-09T10:17:50.307Z,23.61
2022-08-09T10:20:32.288Z,23.59
2022-08-09T10:23:16.965Z,23.98
2022-08-09T10:26:05.971Z,24.05
2022-08-09T10:28:35.744Z,24.33
2022-08-09T10:34:09.260Z,24.03
2022-08-09T10:36:42.283Z,24.17
2022-08-09T10:39:15.553Z,24.20
2022-08-09T10:41:46.179Z,24.37
2022-08-09T10:44:19.244Z,24.72
2022-08-09T10:48:20.498Z,24.74
2022-08-09T10:50:26.979Z,24.79
2022-08-09T10:53:10.510Z,24.91
2022-08-09T10:55:55.304Z,24.98
2022-08-09T10:58:33.711Z,25.04
2022-08-09T11:03:03.192Z,24.76
2022-08-09T11:04:30.422Z,25.27
2022-08-09T11:07:56.599Z,25.69
2022-08-09T11:10:18.536Z,25.81
2022-08-09T11:13:49.272Z,25.72
2022-08-09T11:16:36.207Z,26.11
2022-08-09T11:19:07.875Z,25.77
2022-08-09T11:21:55.107Z,25.47
2022-08-09T11:25:04.275Z,25.50
2022-08-09T11:28:05.589Z,25.51
2022-08-09T11:30:35.875Z,24.60
2022-08-09T11:33:06.331Z,24.19
2022-08-09T11:35:48.983Z,24.05
2022-08-09T11:38:22.060Z,24.88
2022-08-09T11:40:53.080Z,25.29
2022-08-09T11:43:43.992Z,25.57
2022-08-09T11:46:26.608Z,25.79
2022-08-09T11:49:04.976Z,25.96
2022-08-09T11:53:03.081Z,26.46
2022-08-09T11:55:52.519Z,26.42
2022-08-09T11:58:41.784Z,26.47
2022-08-09T12:02:01.023Z,26.51
2022-08-09T12:04:20.792Z,26.65
2022-08-09T12:06:57.120Z,26.03
2022-08-09T12:09:33.985Z,25.93
2022-08-09T12:12:06.045Z,25.33
2022-08-09T12:15:04.410Z,25.38
2022-08-09T12:17:42.978Z,24.94
2022-08-09T12:20:16.763Z,24.55
2022-08-09T12:22:50.900Z,24.38
2022-08-09T12:25:35.991Z,24.89
2022-08-09T12:29:13.979Z,25.58
2022-08-09T12:31:01.306Z,26.17
2022-08-09T12:33:51.366Z,26.08
2022-08-09T12:36:31.376Z,26.39
2022-08-09T12:39:01.427Z,26.80
2022-08-09T12:41:38.135Z,27.16
2022-08-09T12:44:10.037Z,27.58
2022-08-09T12:46:46.523Z,27.71
2022-08-09T12:49:17.907Z,28.23
2022-08-09T12:52:01.039Z,28.05
2022-08-09T12:56:10.814Z,28.24
2022-08-09T12:57:39.776Z,27.29
2022-08-09T13:00:17.410Z,26.54
2022-08-09T13:02:49.346Z,27.04
2022-08-09T13:05:25.340Z,27.39
2022-08-09T13:08:15.103Z,26.85
2022-08-09T13:10:52.472Z,26.87
2022-08-09T13:14:01.022Z,27.42
2022-08-09T13:16:21.248Z,27.83
2022-08-09T13:18:53.807Z,27.81
2022-08-09T13:22:36.094Z,27.63
2022-08-09T13:24:44.318Z,27.61
2022-08-09T13:27:01.690Z,28.21
2022-08-09T13:30:03.184Z,28.37
2022-08-09T13:32:28.933Z,28.10
2022-08-09T13:34:57.301Z,28.18
2022-08-09T13:37:52.269Z,28.26
2022-08-09T13:41:56.385Z,28.28
2022-08-09T13:43:03.484Z,28.44
2022-08-09T13:46:43.633Z,28.40
2022-08-09T13:48:22.894Z,27.97
2022-08-09T13:50:52.814Z,28.47
2022-08-09T13:53:20.579Z,28.68
2022-08-09T13:56:11.088Z,28.34
2022-08-09T13:58:39.741Z,28.61
2022-08-09T14:01:13.613Z,28.71
2022-08-09T14:04:04.871Z,28.84
2022-08-09T14:06:36.943Z,28.41
2022-08-09T14:09:07.682Z,28.14
2022-08-09T14:11:47.114Z,27.53
2022-08-09T14:14:26.703Z,27.52
2022-08-09T14:16:58.639Z,27.21
2022-08-09T14:19:33.119Z,27.20
2022-08-09T14:22:01.809Z,26.68
2022-08-09T14:24:32.095Z,26.04
2022-08-09T14:27:01.359Z,25.83
2022-08-09T14:30:36.005Z,25.68
2022-08-09T14:32:26.040Z,25.61
2022-08-09T14:34:58.971Z,25.41
2022-08-09T14:37:28.140Z,25.52
2022-08-09T14:39:56.958Z,25.64
2022-08-09T14:42:30.232Z,25.82
2022-08-09T14:46:46.334Z,26.35
2022-08-09T14:47:58.661Z,25.98
2022-08-09T14:50:30.689Z,25.58
2022-08-09T14:53:00.723Z,25.11
2022-08-09T14:55:32.415Z,24.70
2022-08-09T14:58:05.225Z,24.47
2022-08-09T15:00:34.177Z,24.50
2022-08-09T15:03:04.845Z,25.17
2022-08-09T15:05:33.270Z,25.69
2022-08-09T15:08:01.236Z,26.24
2022-08-09T15:10:31.642Z,26.78
2022-08-09T15:13:01.424Z,26.46
2022-08-09T15:15:34.468Z,26.10
2022-08-09T15:18:14.273Z,25.62
2022-08-09T15:21:58.457Z,25.21
2022-08-09T15:24:00.874Z,25.05
2022-08-09T15:26:31.332Z,24.85
2022-08-09T15:29:04.877Z,24.87
2022-08-09T15:31:40.915Z,24.70
2022-08-09T15:34:32.123Z,24.48
2022-08-09T15:37:01.177Z,24.38
2022-08-09T15:39:43.849Z,24.35
2022-08-09T15:42:21.788Z,24.16
2022-08-09T15:44:49.836Z,24.16
2022-08-09T15:47:22.853Z,24.10
2022-08-09T15:50:04.974Z,24.04
2022-08-09T15:52:35.366Z,24.05
2022-08-09T15:55:05.659Z,24.02
2022-08-09T15:57:34.307Z,24.02
2022-08-09T16:00:03.525Z,23.97
2022-08-09T16:02:31.874Z,23.87
2022-08-09T16:05:04.097Z,23.69
2022-08-09T16:07:39.064Z,23.63
2022-08-09T16:10:11.100Z,23.55
2022-08-09T16:12:50.526Z,23.40
2022-08-09T16:16:04.383Z,23.42
2022-08-09T16:18:10.200Z,23.36
2022-08-09T16:20:41.561Z,23.43
2022-08-09T16:23:11.184Z,23.52
2022-08-09T16:25:40.824Z,23.43
2022-08-09T16:28:12.181Z,23.54
2022-08-09T16:30:44.826Z,23.58
2022-08-09T16:33:26.485Z,23.71
2022-08-09T16:36:00.951Z,23.72
2022-08-09T16:38:32.444Z,23.70
2022-08-09T16:41:04.074Z,23.73
2022-08-09T16:43:32.050Z,23.78
2022-08-09T16:45:59.915Z,23.78
2022-08-09T16:48:39.161Z,23.67
2022-08-09T16:51:15.301Z,23.59
2022-08-09T16:54:09.164Z,23.61
2022-08-09T16:56:32.726Z,23.70
2022-08-09T16:59:10.221Z,23.74
2022-08-09T17:01:39.038Z,23.89
2022-08-09T17:04:11.339Z,24.00
2022-08-09T17:08:41.331Z,24.16
2022-08-09T17:09:47.229Z,24.22
2022-08-09T17:12:16.114Z,24.22
2022-08-09T17:14:47.944Z,24.48
2022-08-09T17:17:26.868Z,24.45
2022-08-09T17:20:28.646Z,24.29
2022-08-09T17:22:49.995Z,24.04
2022-08-09T17:25:19.517Z,23.85
2022-08-09T17:27:49.254Z,23.60
2022-08-09T17:30:25.985Z,23.30
2022-08-09T17:33:00.732Z,23.17
2022-08-09T17:35:35.252Z,22.95
2022-08-09T17:38:24.269Z,22.81
2022-08-09T17:40:58.172Z,22.65
2022-08-09T17:43:33.699Z,22.59
2022-08-09T17:46:07.085Z,22.51
2022-08-09T17:48:38.836Z,22.30
2022-08-09T17:51:17.546Z,22.08
2022-08-09T17:53:52.999Z,22.04
2022-08-09T17:56:27.286Z,21.94
2022-08-09T17:58:58.744Z,21.87
2022-08-09T18:01:57.769Z,21.76
2022-08-09T18:04:16.195Z,21.74
2022-08-09T18:06:54.282Z,21.66
2022-08-09T18:09:40.206Z,21.62
2022-08-09T18:12:15.076Z,21.56
2022-08-09T18:14:50.041Z,21.47
2022-08-09T18:18:02.187Z,21.38
2022-08-09T18:20:56.441Z,21.30
2022-08-09T18:23:07.105Z,21.17
2022-08-09T18:25:52.885Z,21.16
2022-08-09T18:30:36.401Z,21.08
2022-08-09T18:31:12.565Z,21.00
2022-08-09T18:33:40.757Z,20.93
2022-08-09T18:36:14.335Z,20.86
2022-08-09T18:39:00.737Z,20.78
2022-08-09T18:41:34.265Z,20.77
2022-08-09T18:44:12.953Z,20.59
2022-08-09T18:46:46.488Z,20.50
2022-08-09T18:49:31.846Z,20.47
2022-08-09T18:52:00.140Z,20.40
2022-08-09T18:54:30.165Z,20.40
2022-08-09T18:57:05.126Z,20.36
2022-08-09T18:59:48.515Z,20.31
2022-08-09T19:02:18.110Z,19.65
2022-08-09T19:04:47.476Z,19.64
2022-08-09T19:07:16.662Z,19.67
2022-08-09T19:10:14.044Z,19.68
2022-08-09T19:12:37.286Z,19.69
2022-08-09T19:15:08.151Z,19.70
2022-08-09T19:17:54.525Z,19.69
2022-08-09T19:20:25.412Z,19.69
2022-08-09T19:22:54.585Z,19.66
2022-08-09T19:25:41.798Z,19.64
2022-08-09T19:28:13.598Z,19.61
2022-08-09T19:30:44.602Z,19.60
2022-08-09T19:33:19.411Z,19.58
2022-08-09T19:35:58.298Z,19.51
2022-08-09T19:38:27.861Z,19.47
2022-08-09T19:40:57.627Z,19.42
2022-08-09T19:43:57.925Z,19.39
2022-08-09T19:46:17.505Z,19.34
2022-08-09T19:50:05.318Z,19.26
2022-08-09T19:51:55.474Z,18.69
2022-08-09T19:54:25.039Z,18.30
2022-08-09T19:56:53.057Z,18.23
2022-08-09T19:59:57.529Z,18.18
2022-08-09T20:04:07.039Z,18.17
2022-08-09T20:05:01.231Z,18.14
2022-08-09T20:07:56.867Z,18.16
2022-08-09T20:10:22.099Z,18.11
2022-08-09T20:12:51.991Z,18.09
2022-08-09T20:16:37.770Z,18.10
2022-08-09T20:18:10.207Z,18.09
2022-08-09T20:20:40.206Z,18.06
2022-08-09T20:23:09.196Z,18.07
2022-08-09T20:25:38.268Z,18.04
2022-08-09T20:28:28.176Z,18.03
2022-08-09T20:31:04.827Z,18.05
2022-08-09T20:33:38.914Z,17.97
2022-08-09T20:36:10.170Z,17.99
2022-08-09T20:39:18.638Z,17.97
2022-08-09T20:41:32.216Z,18.02
2022-08-09T20:44:03.377Z,17.98
2022-08-09T20:46:41.970Z,17.97
2022-08-09T20:49:11.929Z,17.98
2022-08-09T20:51:41.590Z,17.82
2022-08-09T20:54:12.719Z,17.79
2022-08-09T20:56:46.703Z,17.41
2022-08-09T20:59:16.839Z,17.26
2022-08-09T21:01:50.352Z,16.95
2022-08-09T21:05:53.956Z,16.75
2022-08-09T21:07:11.962Z,16.65
2022-08-09T21:09:55.698Z,16.61
2022-08-09T21:15:15.430Z,16.32
2022-08-09T21:18:29.758Z,16.42
2022-08-09T21:20:35.580Z,16.36
2022-08-09T21:23:04.685Z,16.36
2022-08-09T21:25:55.996Z,16.37
2022-08-09T21:28:33.383Z,16.36
2022-08-09T21:31:02.144Z,16.42
2022-08-09T21:33:49.410Z,16.47
2022-08-09T21:36:23.107Z,16.52
2022-08-09T21:38:57.338Z,16.55
2022-08-09T21:42:00.349Z,16.57
2022-08-09T21:44:34.672Z,16.60
2022-08-09T21:47:05.228Z,16.61
2022-08-09T21:49:40.541Z,16.65
2022-08-09T21:52:14.821Z,16.66
2022-08-09T21:54:49.492Z,16.64
2022-08-09T21:57:39.532Z,16.64
2022-08-09T22:00:16.928Z,16.62
2022-08-09T22:02:51.187Z,16.62
2022-08-09T22:05:37.593Z,16.60
2022-08-09T22:08:13.810Z,16.60
2022-08-09T22:11:49.498Z,16.56
2022-08-09T22:13:34.547Z,16.53
2022-08-09T22:16:07.904Z,16.50
2022-08-09T22:18:37.635Z,16.48
2022-08-09T22:21:09.681Z,16.49
2022-08-09T22:24:01.131Z,16.45
2022-08-09T22:26:34.919Z,16.34
2022-08-09T22:29:08.745Z,16.25
2022-08-09T22:31:37.221Z,16.13
2022-08-09T22:34:09.874Z,15.83
2022-08-09T22:36:46.444Z,15.84
2022-08-09T22:39:20.778Z,15.69
2022-08-09T22:42:16.190Z,15.77
2022-08-09T22:44:49.840Z,15.78
2022-08-09T22:48:11.135Z,15.76
2022-08-09T22:50:25.858Z,15.72
2022-08-09T22:52:57.942Z,15.69
2022-08-09T22:55:29.637Z,15.64
2022-08-09T22:58:07.957Z,15.63
2022-08-09T23:00:37.440Z,15.62
2022-08-09T23:03:12.536Z,15.56
2022-08-09T23:05:41.001Z,15.53
2022-08-09T23:08:33.385Z,15.47
2022-08-09T23:11:02.362Z,15.43
2022-08-09T23:13:30.229Z,15.34
2022-08-09T23:16:03.236Z,15.34
2022-08-09T23:18:31.929Z,15.21
2022-08-09T23:20:59.687Z,15.08
2022-08-09T23:23:28.868Z,15.15
2022-08-09T23:25:57.297Z,14.99
2022-08-09T23:28:25.159Z,14.77
2022-08-09T23:30:53.232Z,14.74
2022-08-09T23:33:22.056Z,14.82
2022-08-09T23:36:05.602Z,14.83
2022-08-09T23:38:48.487Z,14.74
2022-08-09T23:41:28.518Z,14.78
2022-08-09T23:43:59.120Z,14.67
2022-08-09T23:46:27.311Z,14.59
2022-08-09T23:48:55.166Z,14.42
2022-08-09T23:51:23.590Z,14.34
2022-08-09T23:53:55.082Z,14.25
2022-08-09T23:56:39.560Z,14.10
2022-08-09T23:59:11.656Z,14.11
